createdAt,value
2023-03-19T00:00:23.735Z,10.70
2023-03-19T00:02:51.906Z,10.80
2023-03-19T00:05:19.481Z,10.70
2023-03-19T00:07:46.593Z,10.80
2023-03-19T00:10:13.844Z,10.70
2023-03-19T00:12:40.983Z,10.70
2023-03-19T00:15:12.288Z,10.70
2023-03-19T00:17:39.127Z,10.60
2023-03-19T00:20:06.828Z,10.70
2023-03-19T00:22:33.915Z,10.70
2023-03-19T00:25:01.532Z,10.60
2023-03-19T00:27:28.468Z,10.60
2023-03-19T00:29:55.882Z,10.60
2023-03-19T00:32:22.730Z,10.60
2023-03-19T00:34:49.656Z,10.50
2023-03-19T00:37:17.436Z,10.50
2023-03-19T00:39:44.796Z,10.50
2023-03-19T00:42:12.019Z,10.40
2023-03-19T00:44:38.902Z,10.40
2023-03-19T00:47:07.707Z,10.30
2023-03-19T00:49:34.602Z,10.30
2023-03-19T00:52:01.592Z,10.20
2023-03-19T00:54:28.501Z,10.20
2023-03-19T00:56:55.371Z,10.10
2023-03-19T00:59:22.234Z,10.10
2023-03-19T01:01:49.081Z,10.00
2023-03-19T01:04:16.015Z,10.00
2023-03-19T01:06:43.576Z,10.00
2023-03-19T01:09:10.665Z,10.00
2023-03-19T01:11:37.746Z,10.00
2023-03-19T01:14:04.582Z,10.00
2023-03-19T01:16:31.717Z,10.00
2023-03-19T01:18:58.997Z,10.00
2023-03-19T01:21:26.094Z,10.00
2023-03-19T01:23:53.480Z,10.00
2023-03-19T01:26:20.697Z,10.00
2023-03-19T01:28:47.612Z,10.00
2023-03-19T01:31:14.563Z,10.00
2023-03-19T01:33:42.754Z,10.00
2023-03-19T01:36:10.114Z,10.00
2023-03-19T01:38:37.220Z,10.00
2023-03-19T01:41:04.449Z,9.90
2023-03-19T01:43:32.708Z,9.90
2023-03-19T01:46:04.680Z,9.90
2023-03-19T01:48:53.028Z,9.90
2023-03-19T01:51:26.402Z,9.90
2023-03-19T01:54:07.097Z,9.90
2023-03-19T01:56:37.433Z,9.90
2023-03-19T01:59:12.509Z,10.00
2023-03-19T02:01:49.696Z,10.00
2023-03-19T02:04:17.073Z,9.90
2023-03-19T02:06:45.043Z,10.00
2023-03-19T02:09:14.179Z,9.90
2023-03-19T02:11:41.716Z,9.90
2023-03-19T02:14:09.879Z,9.90
2023-03-19T02:16:37.063Z,9.90
2023-03-19T02:19:06.844Z,10.00
2023-03-19T02:21:33.679Z,10.00
2023-03-19T02:24:02.803Z,10.00
2023-03-19T02:26:30.752Z,10.00
2023-03-19T02:28:57.629Z,10.00
2023-03-19T02:31:25.176Z,10.00
2023-03-19T02:34:01.434Z,10.00
2023-03-19T02:36:42.342Z,10.10
2023-03-19T02:39:19.379Z,10.00
2023-03-19T02:41:47.211Z,10.00
2023-03-19T02:44:14.324Z,10.10
2023-03-19T02:46:41.177Z,10.10
2023-03-19T02:49:08.562Z,10.10
2023-03-19T02:51:37.716Z,10.10
2023-03-19T02:54:06.405Z,10.10
2023-03-19T02:56:33.440Z,10.20
2023-03-19T02:59:00.304Z,10.20
2023-03-19T03:01:27.523Z,10.20
2023-03-19T03:03:54.430Z,10.20
2023-03-19T03:06:21.621Z,10.20
2023-03-19T03:08:48.529Z,10.20
2023-03-19T03:11:18.822Z,10.20
2023-03-19T03:13:45.914Z,10.20
2023-03-19T03:16:14.308Z,10.20
2023-03-19T03:18:41.448Z,10.20
2023-03-19T03:21:09.050Z,10.20
2023-03-19T03:23:37.292Z,10.30
2023-03-19T03:26:04.230Z,10.30
2023-03-19T03:28:31.086Z,10.40
2023-03-19T03:31:02.292Z,10.40
2023-03-19T03:33:29.700Z,10.50
2023-03-19T03:35:56.672Z,10.50
2023-03-19T03:38:23.735Z,10.60
2023-03-19T03:40:54.129Z,10.60
2023-03-19T03:43:21.888Z,10.60
2023-03-19T03:45:49.874Z,10.60
2023-03-19T03:48:17.880Z,10.60
2023-03-19T03:50:44.996Z,10.60
2023-03-19T03:53:13.238Z,10.60
2023-03-19T03:55:40.622Z,10.50
2023-03-19T03:58:07.957Z,10.50
2023-03-19T04:00:35.612Z,10.60
2023-03-19T04:03:03.138Z,10.50
2023-03-19T04:05:30.047Z,10.50
2023-03-19T04:07:57.227Z,10.60
2023-03-19T04:10:24.263Z,10.60
2023-03-19T04:12:51.362Z,10.60
2023-03-19T04:15:18.980Z,10.60
2023-03-19T04:17:46.059Z,10.60
2023-03-19T04:20:14.358Z,10.60
2023-03-19T04:22:41.763Z,10.60
2023-03-19T04:25:09.317Z,10.60
2023-03-19T04:27:36.957Z,10.70
2023-03-19T04:30:05.288Z,10.60
2023-03-19T04:32:33.545Z,10.70
2023-03-19T04:35:00.740Z,10.70
2023-03-19T04:37:28.122Z,10.70
2023-03-19T04:39:55.394Z,10.70
2023-03-19T04:42:22.752Z,10.70
2023-03-19T04:44:49.634Z,10.70
2023-03-19T04:47:16.904Z,10.80
2023-03-19T04:49:44.116Z,10.80
2023-03-19T04:52:11.245Z,10.70
2023-03-19T04:54:38.515Z,10.70
2023-03-19T04:57:05.689Z,10.80
2023-03-19T04:59:32.652Z,10.80
2023-03-19T05:01:59.485Z,10.80
2023-03-19T05:04:27.356Z,10.80
2023-03-19T05:06:54.226Z,10.80
2023-03-19T05:09:21.197Z,10.80
2023-03-19T05:11:48.083Z,10.80
2023-03-19T05:14:14.957Z,10.80
2023-03-19T05:16:42.833Z,10.90
2023-03-19T05:19:11.344Z,10.90
2023-03-19T05:21:38.518Z,10.90
2023-03-19T05:24:05.747Z,11.00
2023-03-19T05:26:33.003Z,11.00
2023-03-19T05:29:00.187Z,11.00
2023-03-19T05:31:27.137Z,11.00
2023-03-19T05:33:54.185Z,11.00
2023-03-19T05:36:21.198Z,11.00
2023-03-19T05:38:48.063Z,11.10
2023-03-19T05:41:15.197Z,11.00
2023-03-19T05:43:42.684Z,11.00
2023-03-19T05:46:10.158Z,11.00
2023-03-19T05:48:37.931Z,11.00
2023-03-19T05:51:05.561Z,11.00
2023-03-19T05:53:32.603Z,11.00
2023-03-19T05:55:59.549Z,10.90
2023-03-19T05:58:26.734Z,11.00
2023-03-19T06:00:57.011Z,11.00
2023-03-19T06:03:24.970Z,11.00
2023-03-19T06:05:52.567Z,11.00
2023-03-19T06:08:21.985Z,10.90
2023-03-19T06:10:49.156Z,10.90
2023-03-19T06:13:16.191Z,10.90
2023-03-19T06:15:43.474Z,10.90
2023-03-19T06:18:10.450Z,10.90
2023-03-19T06:20:37.526Z,10.90
2023-03-19T06:23:04.687Z,10.90
2023-03-19T06:25:31.790Z,10.90
2023-03-19T06:27:59.774Z,10.90
2023-03-19T06:30:27.630Z,10.90
2023-03-19T06:32:54.817Z,11.00
2023-03-19T06:35:22.451Z,11.00
2023-03-19T06:37:49.952Z,11.00
2023-03-19T06:40:17.479Z,11.00
2023-03-19T06:42:49.199Z,11.00
2023-03-19T06:45:19.027Z,11.10
2023-03-19T06:47:48.084Z,11.10
2023-03-19T06:50:16.486Z,11.10
2023-03-19T06:52:44.463Z,11.10
2023-03-19T06:55:12.650Z,11.10
2023-03-19T06:57:41.259Z,11.10
2023-03-19T07:00:11.733Z,11.10
2023-03-19T07:02:38.862Z,11.20
2023-03-19T07:05:06.636Z,11.20
2023-03-19T07:07:33.950Z,11.20
2023-03-19T07:10:01.273Z,11.20
2023-03-19T07:12:28.419Z,11.20
2023-03-19T07:14:58.518Z,11.30
2023-03-19T07:17:26.101Z,11.20
2023-03-19T07:19:53.079Z,11.30
2023-03-19T07:22:20.214Z,11.30
2023-03-19T07:24:47.773Z,11.40
2023-03-19T07:27:15.026Z,11.30
2023-03-19T07:29:42.084Z,11.40
2023-03-19T07:32:11.009Z,11.50
2023-03-19T07:34:38.510Z,11.50
2023-03-19T07:37:06.177Z,11.60
2023-03-19T07:39:33.912Z,11.60
2023-03-19T07:42:00.895Z,11.60
2023-03-19T07:44:28.312Z,11.50
2023-03-19T07:46:55.260Z,11.50
2023-03-19T07:49:23.014Z,11.40
2023-03-19T07:51:49.968Z,11.50
2023-03-19T07:54:17.586Z,11.50
2023-03-19T07:56:44.852Z,11.50
2023-03-19T07:59:12.015Z,11.60
2023-03-19T08:01:39.410Z,11.70
2023-03-19T08:04:06.652Z,11.80
2023-03-19T08:06:33.745Z,11.90
2023-03-19T08:09:01.044Z,12.10
2023-03-19T08:11:30.049Z,12.20
2023-03-19T08:13:57.011Z,12.40
2023-03-19T08:16:23.959Z,12.50
2023-03-19T08:18:52.632Z,12.60
2023-03-19T08:21:20.503Z,12.70
2023-03-19T08:23:47.692Z,12.70
2023-03-19T08:26:14.710Z,12.80
2023-03-19T08:28:42.447Z,13.00
2023-03-19T08:31:11.198Z,13.10
2023-03-19T08:33:38.922Z,13.20
2023-03-19T08:36:14.813Z,13.40
2023-03-19T08:38:42.159Z,13.40
2023-03-19T08:41:09.486Z,13.30
2023-03-19T08:43:37.738Z,13.30
2023-03-19T08:46:05.734Z,13.20
2023-03-19T08:48:33.691Z,13.20
2023-03-19T08:51:02.764Z,13.10
2023-03-19T08:53:32.375Z,13.10
2023-03-19T08:56:05.582Z,13.20
2023-03-19T08:58:32.752Z,13.30
2023-03-19T09:01:12.268Z,13.40
2023-03-19T09:03:41.269Z,13.60
2023-03-19T09:06:10.448Z,13.70
2023-03-19T09:08:38.362Z,13.80
2023-03-19T09:11:06.544Z,13.90
2023-03-19T09:13:33.755Z,13.80
2023-03-19T09:16:01.423Z,13.80
2023-03-19T09:18:28.959Z,13.80
2023-03-19T09:20:55.966Z,13.90
2023-03-19T09:23:23.521Z,14.00
2023-03-19T09:25:50.699Z,14.10
2023-03-19T09:28:17.910Z,14.10
2023-03-19T09:30:49.675Z,14.10
2023-03-19T09:33:18.568Z,14.20
2023-03-19T09:35:53.044Z,14.40
2023-03-19T09:38:22.049Z,14.50
2023-03-19T09:41:02.515Z,14.60
2023-03-19T09:43:49.479Z,14.70
2023-03-19T09:46:24.565Z,14.80
2023-03-19T09:49:12.796Z,14.70
2023-03-19T09:52:03.691Z,14.60
2023-03-19T09:54:59.134Z,14.60
2023-03-19T09:57:26.378Z,14.60
2023-03-19T09:59:54.840Z,14.60
2023-03-19T10:02:43.339Z,14.60
2023-03-19T10:05:19.471Z,14.60
2023-03-19T10:07:56.392Z,14.60
2023-03-19T10:10:39.615Z,14.40
2023-03-19T10:13:38.575Z,14.20
2023-03-19T10:16:11.558Z,14.20
2023-03-19T10:18:44.610Z,14.20
2023-03-19T10:21:19.371Z,14.20
2023-03-19T10:24:00.947Z,14.20
2023-03-19T10:26:35.468Z,14.20
2023-03-19T10:29:14.589Z,14.30
2023-03-19T10:31:41.302Z,14.20
2023-03-19T10:34:34.773Z,14.10
2023-03-19T10:37:26.552Z,14.10
2023-03-19T10:39:57.675Z,14.10
2023-03-19T10:42:50.135Z,14.00
2023-03-19T10:45:32.246Z,13.90
2023-03-19T10:48:00.825Z,13.90
2023-03-19T10:51:06.743Z,14.00
2023-03-19T10:53:38.184Z,14.10
2023-03-19T10:56:05.105Z,14.20
2023-03-19T10:58:36.754Z,14.50
2023-03-19T11:01:09.755Z,14.90
2023-03-19T11:03:57.146Z,15.30
2023-03-19T11:06:33.336Z,15.50
2023-03-19T11:09:39.069Z,15.40
2023-03-19T11:12:34.028Z,15.30
2023-03-19T11:15:03.874Z,15.30
2023-03-19T11:17:37.001Z,15.30
2023-03-19T11:20:15.837Z,15.40
2023-03-19T11:22:42.916Z,15.30
2023-03-19T11:25:26.993Z,15.30
2023-03-19T11:28:03.933Z,15.30
2023-03-19T11:30:40.627Z,15.40
2023-03-19T11:33:20.130Z,15.40
2023-03-19T11:35:51.971Z,15.60
2023-03-19T11:38:49.461Z,15.70
2023-03-19T11:41:49.550Z,16.00
2023-03-19T11:44:28.973Z,16.30
2023-03-19T11:47:17.772Z,16.60
2023-03-19T11:50:18.303Z,16.80
2023-03-19T11:53:03.258Z,17.00
2023-03-19T11:55:51.403Z,16.90
2023-03-19T11:58:21.136Z,17.10
2023-03-19T12:00:52.650Z,17.40
2023-03-19T12:03:56.878Z,17.40
2023-03-19T12:06:35.575Z,17.50
2023-03-19T12:09:07.823Z,17.30
2023-03-19T12:11:40.045Z,17.30
2023-03-19T12:14:34.541Z,17.40
2023-03-19T12:17:04.306Z,17.40
2023-03-19T12:20:05.156Z,17.60
2023-03-19T12:22:52.492Z,17.70
2023-03-19T12:25:42.676Z,17.90
2023-03-19T12:28:26.536Z,18.10
2023-03-19T12:31:18.050Z,18.20
2023-03-19T12:34:29.659Z,18.20
2023-03-19T12:37:25.977Z,18.20
2023-03-19T12:40:22.677Z,18.30
2023-03-19T12:42:49.350Z,18.20
2023-03-19T12:45:34.774Z,18.20
2023-03-19T12:48:27.212Z,18.20
2023-03-19T12:50:58.786Z,18.30
2023-03-19T12:53:40.916Z,18.40
2023-03-19T12:56:15.010Z,18.40
2023-03-19T12:59:09.914Z,18.40
2023-03-19T13:01:53.410Z,18.20
2023-03-19T13:04:26.376Z,18.10
2023-03-19T13:07:16.215Z,17.90
2023-03-19T13:09:58.069Z,17.80
2023-03-19T13:12:28.821Z,17.80
2023-03-19T13:15:03.274Z,17.90
2023-03-19T13:17:57.068Z,18.10
2023-03-19T13:20:32.585Z,18.30
2023-03-19T13:23:03.179Z,18.30
2023-03-19T13:25:43.438Z,18.30
2023-03-19T13:28:12.067Z,18.30
2023-03-19T13:30:40.397Z,18.20
2023-03-19T13:33:14.007Z,18.10
2023-03-19T13:35:45.557Z,18.20
2023-03-19T13:38:18.604Z,18.20
2023-03-19T13:40:50.991Z,18.50
2023-03-19T13:43:29.914Z,18.50
2023-03-19T13:46:17.560Z,18.60
2023-03-19T13:48:47.668Z,18.50
2023-03-19T13:51:21.026Z,18.40
2023-03-19T13:54:12.779Z,18.60
2023-03-19T13:57:00.864Z,18.70
2023-03-19T13:59:29.859Z,18.70
2023-03-19T14:01:57.634Z,18.50
2023-03-19T14:04:26.386Z,18.40
2023-03-19T14:06:56.693Z,18.30
2023-03-19T14:09:43.389Z,18.30
2023-03-19T14:12:15.885Z,18.30
2023-03-19T14:15:00.119Z,18.50
2023-03-19T14:17:59.144Z,18.40
2023-03-19T14:20:40.313Z,18.30
2023-03-19T14:23:17.917Z,18.00
2023-03-19T14:25:56.832Z,17.80
2023-03-19T14:28:36.538Z,17.60
2023-03-19T14:31:05.405Z,17.50
2023-03-19T14:33:52.325Z,17.40
2023-03-19T14:36:21.976Z,17.40
2023-03-19T14:39:25.215Z,17.60
2023-03-19T14:42:01.110Z,17.40
2023-03-19T14:45:16.049Z,17.30
2023-03-19T14:48:29.512Z,17.30
2023-03-19T14:51:25.542Z,17.30
2023-03-19T14:54:18.155Z,17.20
2023-03-19T14:56:48.181Z,17.10
2023-03-19T14:59:16.058Z,17.10
2023-03-19T15:01:51.133Z,17.10
2023-03-19T15:04:20.784Z,17.10
2023-03-19T15:06:56.370Z,17.10
2023-03-19T15:09:33.724Z,17.00
2023-03-19T15:12:31.448Z,17.10
2023-03-19T15:15:14.055Z,17.20
2023-03-19T15:17:41.675Z,17.20
2023-03-19T15:20:22.997Z,17.30
2023-03-19T15:23:00.679Z,17.10
2023-03-19T15:25:28.320Z,17.00
2023-03-19T15:28:14.312Z,16.90
2023-03-19T15:30:53.868Z,16.90
2023-03-19T15:33:40.067Z,16.90
2023-03-19T15:36:27.482Z,17.00
2023-03-19T15:38:57.511Z,17.00
2023-03-19T15:41:27.259Z,17.10
2023-03-19T15:43:55.059Z,17.10
2023-03-19T15:46:27.194Z,17.10
2023-03-19T15:49:02.030Z,17.00
2023-03-19T15:51:30.670Z,16.80
2023-03-19T15:53:59.225Z,16.70
2023-03-19T15:56:26.966Z,16.60
2023-03-19T15:58:57.268Z,16.40
2023-03-19T16:01:24.504Z,16.40
2023-03-19T16:03:55.446Z,16.50
2023-03-19T16:06:31.629Z,16.40
2023-03-19T16:09:17.426Z,16.50
2023-03-19T16:11:45.858Z,16.60
2023-03-19T16:14:18.471Z,16.70
2023-03-19T16:16:48.150Z,16.80
2023-03-19T16:19:36.367Z,16.80
2023-03-19T16:22:13.267Z,16.80
2023-03-19T16:24:46.735Z,16.90
2023-03-19T16:27:19.745Z,16.80
2023-03-19T16:29:49.347Z,16.70
2023-03-19T16:32:19.908Z,16.60
2023-03-19T16:34:53.678Z,16.60
2023-03-19T16:37:32.897Z,16.50
2023-03-19T16:40:23.752Z,16.40
2023-03-19T16:42:56.231Z,16.30
2023-03-19T16:45:31.776Z,16.30
2023-03-19T16:48:03.379Z,16.10
2023-03-19T16:50:36.269Z,16.10
2023-03-19T16:53:06.542Z,16.10
2023-03-19T16:55:36.128Z,16.10
2023-03-19T16:58:16.334Z,15.90
2023-03-19T17:00:44.569Z,15.80
2023-03-19T17:03:17.032Z,15.60
2023-03-19T17:05:45.671Z,15.50
2023-03-19T17:08:13.546Z,15.50
2023-03-19T17:10:44.819Z,15.50
2023-03-19T17:13:28.430Z,15.40
2023-03-19T17:16:08.194Z,15.30
2023-03-19T17:18:38.976Z,15.20
2023-03-19T17:21:17.127Z,15.20
2023-03-19T17:23:44.857Z,15.10
2023-03-19T17:26:27.118Z,15.00
2023-03-19T17:28:55.997Z,14.90
2023-03-19T17:31:30.600Z,14.90
2023-03-19T17:34:05.990Z,14.90
2023-03-19T17:36:33.780Z,14.90
2023-03-19T17:39:00.754Z,14.70
2023-03-19T17:41:30.355Z,14.50
2023-03-19T17:43:57.331Z,14.40
2023-03-19T17:46:27.183Z,14.40
2023-03-19T17:48:55.260Z,14.40
2023-03-19T17:51:25.985Z,14.20
2023-03-19T17:53:55.920Z,14.10
2023-03-19T17:56:25.664Z,14.10
2023-03-19T17:58:53.648Z,14.10
2023-03-19T18:01:24.479Z,14.00
2023-03-19T18:03:53.996Z,14.00
2023-03-19T18:06:23.831Z,13.90
2023-03-19T18:08:51.408Z,13.80
2023-03-19T18:11:18.522Z,13.80
2023-03-19T18:13:46.173Z,13.80
2023-03-19T18:16:26.237Z,13.80
2023-03-19T18:18:53.405Z,13.80
2023-03-19T18:21:20.409Z,13.70
2023-03-19T18:23:47.723Z,13.50
2023-03-19T18:26:17.024Z,13.40
2023-03-19T18:28:44.721Z,13.40
2023-03-19T18:31:18.894Z,13.30
2023-03-19T18:33:52.634Z,13.30
2023-03-19T18:36:28.373Z,13.10
2023-03-19T18:38:55.851Z,13.10
2023-03-19T18:41:24.812Z,13.10
2023-03-19T18:43:52.350Z,13.00
2023-03-19T18:46:39.140Z,13.00
2023-03-19T18:49:25.984Z,12.90
2023-03-19T18:52:08.924Z,12.90
2023-03-19T18:54:35.840Z,12.80
2023-03-19T18:57:03.707Z,12.90
2023-03-19T18:59:32.948Z,12.80
2023-03-19T19:02:03.591Z,12.80
2023-03-19T19:04:31.554Z,12.80
2023-03-19T19:06:58.495Z,12.80
2023-03-19T19:09:25.405Z,12.70
2023-03-19T19:11:54.395Z,12.70
2023-03-19T19:14:23.895Z,12.70
2023-03-19T19:16:52.926Z,12.70
2023-03-19T19:19:23.345Z,12.60
2023-03-19T19:21:51.833Z,12.60
2023-03-19T19:24:19.708Z,12.60
2023-03-19T19:26:53.630Z,12.60
2023-03-19T19:29:26.047Z,12.60
2023-03-19T19:31:54.173Z,12.50
2023-03-19T19:34:21.955Z,12.50
2023-03-19T19:36:50.921Z,12.50
2023-03-19T19:39:18.632Z,12.40
2023-03-19T19:41:46.635Z,12.30
2023-03-19T19:44:21.408Z,12.20
2023-03-19T19:46:48.535Z,12.10
2023-03-19T19:49:16.372Z,12.00
2023-03-19T19:51:43.732Z,11.90
2023-03-19T19:54:15.108Z,11.90
2023-03-19T19:56:42.909Z,11.80
2023-03-19T19:59:15.272Z,11.70
2023-03-19T20:01:43.595Z,11.70
2023-03-19T20:04:15.052Z,11.60
2023-03-19T20:06:42.393Z,11.60
2023-03-19T20:09:09.292Z,11.60
2023-03-19T20:11:36.616Z,11.50
2023-03-19T20:14:03.682Z,11.40
2023-03-19T20:16:31.042Z,11.30
2023-03-19T20:18:58.739Z,11.20
2023-03-19T20:21:26.258Z,11.20
2023-03-19T20:23:55.450Z,11.20
2023-03-19T20:26:25.109Z,11.10
2023-03-19T20:28:52.982Z,11.10
2023-03-19T20:31:30.154Z,11.00
2023-03-19T20:33:57.745Z,11.00
2023-03-19T20:36:24.730Z,11.00
2023-03-19T20:38:52.960Z,11.00
2023-03-19T20:41:27.140Z,11.00
2023-03-19T20:43:55.329Z,11.10
2023-03-19T20:46:23.321Z,11.10
2023-03-19T20:48:50.715Z,11.10
2023-03-19T20:51:21.590Z,11.00
2023-03-19T20:53:50.016Z,11.00
2023-03-19T20:56:20.041Z,11.00
2023-03-19T20:58:47.408Z,11.00
2023-03-19T21:01:15.560Z,10.90
2023-03-19T21:03:43.125Z,10.90
2023-03-19T21:06:19.882Z,10.90
2023-03-19T21:08:58.132Z,10.80
2023-03-19T21:11:37.181Z,10.80
2023-03-19T21:14:04.831Z,10.70
2023-03-19T21:16:33.990Z,10.70
2023-03-19T21:19:01.865Z,10.60
2023-03-19T21:21:35.356Z,10.60
2023-03-19T21:24:08.014Z,10.60
2023-03-19T21:26:40.549Z,10.50
2023-03-19T21:29:14.374Z,10.40
2023-03-19T21:31:41.584Z,10.40
2023-03-19T21:34:13.730Z,10.40
2023-03-19T21:36:40.577Z,10.30
2023-03-19T21:39:07.630Z,10.20
2023-03-19T21:41:36.207Z,10.10
2023-03-19T21:44:11.575Z,10.10
2023-03-19T21:46:38.667Z,10.10
2023-03-19T21:49:11.250Z,10.10
2023-03-19T21:51:38.413Z,10.10
2023-03-19T21:54:06.115Z,10.10
2023-03-19T21:56:40.817Z,10.00
2023-03-19T21:59:18.159Z,10.00
2023-03-19T22:01:45.316Z,10.10
2023-03-19T22:04:12.228Z,10.10
2023-03-19T22:06:40.081Z,10.00
2023-03-19T22:09:07.048Z,10.10
2023-03-19T22:11:37.801Z,10.10
2023-03-19T22:14:20.171Z,10.00
2023-03-19T22:16:53.964Z,10.10
2023-03-19T22:19:21.603Z,10.10
2023-03-19T22:21:49.558Z,10.10
2023-03-19T22:24:16.467Z,10.00
2023-03-19T22:26:44.292Z,10.00
2023-03-19T22:29:20.426Z,10.00
2023-03-19T22:31:52.900Z,10.00
2023-03-19T22:34:23.044Z,10.00
2023-03-19T22:36:51.044Z,9.90
2023-03-19T22:39:18.220Z,9.90
2023-03-19T22:41:48.000Z,9.90
2023-03-19T22:44:26.695Z,9.90
2023-03-19T22:46:54.861Z,9.90
2023-03-19T22:49:22.024Z,9.80
2023-03-19T22:51:48.904Z,9.80
2023-03-19T22:54:15.746Z,9.80
2023-03-19T22:56:42.728Z,9.70
2023-03-19T22:59:09.757Z,9.70
2023-03-19T23:01:41.510Z,9.70
2023-03-19T23:04:30.661Z,9.70
2023-03-19T23:06:59.151Z,9.70
2023-03-19T23:09:27.213Z,9.70
2023-03-19T23:11:54.264Z,9.70
2023-03-19T23:14:29.635Z,9.70
2023-03-19T23:17:03.578Z,9.70
2023-03-19T23:19:33.557Z,9.70
2023-03-19T23:22:03.219Z,9.70
2023-03-19T23:24:30.744Z,9.70
2023-03-19T23:26:59.825Z,9.60
2023-03-19T23:29:37.467Z,9.60
2023-03-19T23:32:05.079Z,9.60
2023-03-19T23:34:35.368Z,9.60
2023-03-19T23:37:07.216Z,9.60
2023-03-19T23:39:34.255Z,9.60
2023-03-19T23:42:01.173Z,9.60
2023-03-19T23:44:29.283Z,9.60
2023-03-19T23:46:59.796Z,9.60
2023-03-19T23:49:33.317Z,9.60
2023-03-19T23:52:01.903Z,9.70
2023-03-19T23:54:31.956Z,9.70
2023-03-19T23:57:01.776Z,9.60
2023-03-19T23:59:33.214Z,9.60
